createdAt,value
2022-11-17T00:04:59.678Z,1.92
2022-11-17T00:10:01.158Z,1.52
2022-11-17T00:15:02.686Z,1.80
2022-11-17T00:20:23.444Z,1.48
2022-11-17T00:25:25.070Z,1.40
2022-11-17T00:30:45.071Z,1.35
2022-11-17T00:35:51.878Z,1.42
2022-11-17T00:40:53.314Z,1.30
2022-11-17T00:45:54.733Z,1.73
2022-11-17T00:50:56.182Z,1.48
2022-11-17T00:55:57.604Z,0.95
2022-11-17T01:00:59.047Z,1.42
2022-11-17T01:06:11.879Z,1.55
2022-11-17T01:11:18.884Z,1.15
2022-11-17T01:16:20.423Z,1.65
2022-11-17T01:21:24.668Z,1.48
2022-11-17T01:26:29.217Z,1.13
2022-11-17T01:31:32.750Z,1.60
2022-11-17T01:36:56.906Z,1.27
2022-11-17T01:42:03.236Z,1.40
2022-11-17T01:47:10.161Z,1.42
2022-11-17T01:52:13.026Z,1.40
2022-11-17T01:57:21.301Z,1.50
2022-11-17T02:02:23.430Z,1.30
2022-11-17T02:07:27.421Z,1.30
2022-11-17T02:12:31.942Z,1.33
2022-11-17T02:17:42.652Z,1.48
2022-11-17T02:23:04.599Z,0.70
2022-11-17T02:28:20.806Z,1.10
2022-11-17T02:33:37.683Z,0.98
2022-11-17T02:39:04.698Z,1.27
2022-11-17T02:44:42.980Z,0.98
2022-11-17T02:49:49.389Z,1.20
2022-11-17T02:54:50.832Z,0.90
2022-11-17T02:59:52.316Z,1.10
2022-11-17T03:04:53.713Z,1.00
2022-11-17T03:10:19.574Z,1.08
2022-11-17T03:15:39.245Z,0.90
2022-11-17T03:21:08.023Z,1.33
2022-11-17T03:26:15.655Z,1.10
2022-11-17T03:31:19.104Z,1.15
2022-11-17T03:36:26.859Z,0.75
2022-11-17T03:41:34.328Z,1.00
2022-11-17T03:46:37.924Z,0.80
2022-11-17T03:51:39.419Z,0.93
2022-11-17T03:57:07.275Z,1.25
2022-11-17T04:02:14.043Z,0.88
2022-11-17T04:07:15.520Z,0.95
2022-11-17T04:12:35.685Z,0.88
2022-11-17T04:17:37.082Z,0.90
2022-11-17T04:22:39.612Z,1.25
2022-11-17T04:27:59.431Z,1.15
2022-11-17T04:38:02.269Z,0.98
2022-11-17T04:43:07.335Z,0.90
2022-11-17T04:48:08.775Z,0.75
2022-11-17T04:53:10.153Z,0.75
2022-11-17T04:58:11.739Z,0.80
2022-11-17T05:03:13.123Z,0.75
2022-11-17T05:08:15.032Z,1.08
2022-11-17T05:13:22.273Z,1.30
2022-11-17T05:18:23.732Z,0.95
2022-11-17T05:23:43.610Z,0.77
2022-11-17T05:33:46.597Z,1.17
2022-11-17T05:38:48.789Z,1.27
2022-11-17T05:43:51.468Z,1.10
2022-11-17T05:48:53.537Z,0.80
2022-11-17T05:53:55.001Z,2.70
2022-11-17T05:59:27.571Z,0.82
2022-11-17T06:04:30.444Z,1.00
2022-11-17T06:09:35.255Z,0.88
2022-11-17T06:14:39.042Z,1.13
2022-11-17T06:19:47.103Z,1.05
2022-11-17T06:24:48.707Z,0.70
2022-11-17T06:29:50.216Z,0.98
2022-11-17T06:34:55.787Z,1.05
2022-11-17T06:39:57.961Z,1.05
2022-11-17T06:44:59.354Z,0.82
2022-11-17T06:50:00.808Z,0.95
2022-11-17T06:55:02.410Z,0.70
2022-11-17T07:00:06.005Z,0.70
2022-11-17T07:05:07.724Z,0.90
2022-11-17T07:10:09.602Z,1.02
2022-11-17T07:15:11.316Z,0.80
2022-11-17T07:20:13.722Z,0.60
2022-11-17T07:25:21.108Z,0.50
2022-11-17T07:30:23.789Z,0.60
2022-11-17T07:35:25.303Z,0.50
2022-11-17T07:40:28.617Z,0.30
2022-11-17T07:45:32.350Z,0.60
2022-11-17T07:50:34.943Z,0.65
2022-11-17T07:55:36.362Z,0.40
2022-11-17T08:00:37.831Z,0.95
2022-11-17T08:05:43.456Z,0.77
2022-11-17T08:10:45.244Z,0.50
2022-11-17T08:15:46.662Z,0.73
2022-11-17T08:20:48.198Z,0.60
2022-11-17T08:25:49.619Z,0.95
2022-11-17T08:30:51.081Z,0.82
2022-11-17T08:35:52.601Z,0.85
2022-11-17T08:40:57.644Z,0.90
2022-11-17T08:45:59.396Z,0.70
2022-11-17T08:51:07.409Z,0.50
2022-11-17T08:56:11.111Z,0.70
2022-11-17T09:01:17.927Z,0.50
2022-11-17T09:06:20.021Z,0.70
2022-11-17T09:11:21.780Z,0.40
2022-11-17T09:16:25.168Z,0.38
2022-11-17T09:21:27.195Z,0.40
2022-11-17T09:26:28.707Z,0.55
2022-11-17T09:31:30.467Z,0.50
2022-11-17T09:36:32.736Z,0.88
2022-11-17T09:41:47.908Z,0.57
2022-11-17T09:47:07.151Z,0.73
2022-11-17T09:52:32.783Z,0.77
2022-11-17T09:57:40.401Z,0.45
2022-11-17T10:02:42.782Z,0.38
2022-11-17T10:07:48.859Z,0.68
2022-11-17T10:12:57.083Z,0.63
2022-11-17T10:17:58.523Z,0.43
2022-11-17T10:23:02.892Z,0.40
2022-11-17T10:28:07.055Z,0.70
2022-11-17T10:33:13.064Z,0.73
2022-11-17T10:38:20.805Z,0.50
2022-11-17T10:43:54.329Z,0.82
2022-11-17T10:49:04.983Z,0.80
2022-11-17T10:54:21.136Z,0.32
2022-11-17T10:59:41.194Z,0.40
2022-11-17T11:04:42.679Z,0.38
2022-11-17T11:09:56.201Z,0.40
2022-11-17T11:15:00.032Z,0.50
2022-11-17T11:20:01.658Z,0.63
2022-11-17T11:25:16.288Z,0.50
2022-11-17T11:30:18.845Z,0.43
2022-11-17T11:35:50.339Z,0.35
2022-11-17T11:41:06.687Z,0.30
2022-11-17T11:46:36.978Z,0.63
2022-11-17T11:51:39.376Z,0.40
2022-11-17T11:56:44.298Z,0.30
2022-11-17T12:02:10.311Z,0.75
2022-11-17T12:07:29.302Z,0.60
2022-11-17T12:12:39.417Z,0.60
2022-11-17T12:18:04.867Z,0.63
2022-11-17T12:23:21.206Z,0.40
2022-11-17T12:28:41.458Z,0.40
2022-11-17T12:33:51.859Z,0.40
2022-11-17T12:38:57.076Z,0.65
2022-11-17T12:44:33.477Z,0.50
2022-11-17T12:49:48.289Z,0.50
2022-11-17T12:55:07.127Z,0.13
2022-11-17T13:00:11.842Z,0.63
2022-11-17T13:05:19.297Z,0.40
2022-11-17T13:10:32.729Z,0.60
2022-11-17T13:15:34.172Z,0.70
2022-11-17T13:20:38.728Z,0.52
2022-11-17T13:25:40.427Z,0.65
2022-11-17T13:30:46.527Z,0.68
2022-11-17T13:35:48.505Z,0.65
2022-11-17T13:40:52.253Z,0.80
2022-11-17T13:45:54.924Z,0.80
2022-11-17T13:50:56.490Z,0.70
2022-11-17T13:55:58.027Z,0.55
2022-11-17T14:01:00.003Z,0.40
2022-11-17T14:06:04.482Z,0.60
2022-11-17T14:11:15.286Z,0.75
2022-11-17T14:16:21.972Z,0.80
2022-11-17T14:21:23.642Z,0.77
2022-11-17T14:26:25.059Z,0.60
2022-11-17T14:31:26.508Z,1.02
2022-11-17T14:36:28.138Z,1.17
2022-11-17T14:41:30.635Z,0.63
2022-11-17T14:46:32.039Z,0.50
2022-11-17T14:51:34.512Z,0.60
2022-11-17T14:56:35.999Z,1.15
2022-11-17T15:01:38.556Z,0.70
2022-11-17T15:06:40.138Z,0.70
2022-11-17T15:11:41.733Z,0.93
2022-11-17T15:16:43.215Z,0.73
2022-11-17T15:21:44.717Z,1.10
2022-11-17T15:26:46.100Z,0.80
2022-11-17T15:31:47.664Z,0.85
2022-11-17T15:36:49.241Z,0.88
2022-11-17T15:41:51.537Z,0.73
2022-11-17T15:46:52.942Z,1.42
2022-11-17T15:51:54.504Z,1.67
2022-11-17T15:56:55.934Z,0.90
2022-11-17T16:01:57.344Z,0.65
2022-11-17T16:06:59.670Z,0.85
2022-11-17T16:12:01.661Z,1.05
2022-11-17T16:17:03.196Z,0.45
2022-11-17T16:22:04.644Z,1.25
2022-11-17T16:27:06.102Z,0.70
2022-11-17T16:32:08.239Z,0.88
2022-11-17T16:37:09.605Z,1.08
2022-11-17T16:42:11.096Z,0.90
2022-11-17T16:47:12.483Z,1.05
2022-11-17T16:52:13.964Z,1.17
2022-11-17T16:57:15.391Z,0.90
2022-11-17T17:02:16.842Z,0.93
2022-11-17T17:07:18.428Z,1.08
2022-11-17T17:12:19.958Z,1.63
2022-11-17T17:17:21.366Z,1.80
2022-11-17T17:22:22.938Z,1.50
2022-11-17T17:27:24.418Z,1.42
2022-11-17T17:32:25.867Z,1.45
2022-11-17T17:37:27.415Z,1.10
2022-11-17T17:42:29.044Z,1.15
2022-11-17T17:47:30.587Z,1.10
2022-11-17T17:52:31.991Z,1.02
2022-11-17T17:57:34.178Z,1.33
2022-11-17T18:02:36.244Z,1.38
2022-11-17T18:07:37.715Z,1.40
2022-11-17T18:12:39.125Z,1.83
2022-11-17T18:17:40.610Z,1.98
2022-11-17T18:22:42.194Z,1.02
2022-11-17T18:27:43.617Z,1.13
2022-11-17T18:32:45.133Z,0.90
2022-11-17T18:37:46.542Z,1.05
2022-11-17T18:42:47.933Z,1.30
2022-11-17T18:47:49.327Z,1.98
2022-11-17T18:52:50.820Z,3.00
2022-11-17T18:57:52.262Z,3.38
2022-11-17T19:02:53.741Z,3.92
2022-11-17T19:07:57.160Z,1.60
2022-11-17T19:12:58.582Z,2.10
2022-11-17T19:18:00.121Z,1.65
2022-11-17T19:23:01.527Z,1.52
2022-11-17T19:28:03.112Z,1.27
2022-11-17T19:33:04.703Z,1.20
2022-11-17T19:38:06.141Z,1.48
2022-11-17T19:43:07.701Z,1.25
2022-11-17T19:48:09.190Z,1.65
2022-11-17T19:53:10.630Z,1.35
2022-11-17T19:58:12.093Z,1.40
2022-11-17T20:03:15.083Z,1.15
2022-11-17T20:08:16.595Z,1.40
2022-11-17T20:13:18.059Z,1.50
2022-11-17T20:18:19.633Z,1.83
2022-11-17T20:23:21.423Z,1.27
2022-11-17T20:28:22.823Z,1.08
2022-11-17T20:33:24.324Z,1.55
2022-11-17T20:38:25.817Z,2.25
2022-11-17T20:43:28.403Z,2.42
2022-11-17T20:48:31.527Z,1.80
2022-11-17T20:53:33.838Z,1.80
2022-11-17T20:58:36.042Z,1.83
2022-11-17T21:03:37.483Z,2.15
2022-11-17T21:08:40.698Z,2.35
2022-11-17T21:13:42.119Z,1.90
2022-11-17T21:18:48.035Z,1.92
2022-11-17T21:23:52.398Z,2.25
2022-11-17T21:28:53.984Z,1.75
2022-11-17T21:34:00.567Z,2.05
2022-11-17T21:39:02.086Z,2.08
2022-11-17T21:44:03.733Z,1.88
2022-11-17T21:49:05.229Z,2.45
2022-11-17T21:54:08.898Z,1.95
2022-11-17T21:59:12.838Z,1.85
2022-11-17T22:04:15.663Z,1.75
2022-11-17T22:09:17.400Z,3.10
2022-11-17T22:14:20.216Z,1.63
2022-11-17T22:19:23.734Z,1.80
2022-11-17T22:24:25.109Z,1.75
2022-11-17T22:29:26.931Z,1.67
2022-11-17T22:34:28.344Z,1.90
2022-11-17T22:39:29.816Z,1.58
2022-11-17T22:44:31.196Z,1.30
2022-11-17T22:49:32.599Z,1.80
2022-11-17T22:54:34.667Z,1.60
2022-11-17T22:59:36.134Z,1.70
2022-11-17T23:04:37.521Z,1.70
2022-11-17T23:09:39.263Z,1.90
2022-11-17T23:14:40.767Z,1.50
2022-11-17T23:19:42.174Z,1.30
2022-11-17T23:24:43.656Z,1.98
2022-11-17T23:29:45.057Z,1.73
2022-11-17T23:34:46.587Z,1.42
2022-11-17T23:39:47.991Z,1.10
2022-11-17T23:44:49.775Z,1.23
2022-11-17T23:49:51.180Z,1.77
2022-11-17T23:54:52.839Z,1.85
2022-11-17T23:59:55.145Z,1.33
